Terminal Aerodrome Forecast
Issued by NWS Bismarck, ND

Home | Current Version | Previous Version | Text Only | Print | Product List | Glossary Off
Versions: 1 2 3 4 5 6 7 8 9 10 11 12 13 14 15 16

000
FTUS43 KBIS 251500 AAA
TAFISN
TAF AMD
KISN 251504Z 2515/2612 02011KT 4SM -SN SCT018 OVC035
     FM251700 01011KT P6SM BKN035 BKN090
     FM251900 36014G18KT P6SM FEW030 FEW140
     FM252100 34014G19KT P6SM SKC
     FM260100 34008KT P6SM SKC=

USA.gov is the U.S. government's official web portal to all federal, state and local government web resources and services.